createdAt,value
2018-12-14T00:00:00.898Z,1.5
2018-12-14T00:05:00.859Z,1.5
2018-12-14T00:10:00.892Z,1.5
2018-12-14T00:15:00.893Z,1.0
2018-12-14T00:20:00.879Z,1.0
2018-12-14T00:25:00.883Z,0.8
2018-12-14T00:30:01.006Z,0.8
2018-12-14T00:35:00.877Z,0.8
2018-12-14T00:40:01.427Z,1.0
2018-12-14T00:45:00.902Z,1.4
2018-12-14T00:50:00.964Z,1.8
2018-12-14T01:00:00.868Z,1.9
2018-12-14T01:05:00.865Z,2.0
2018-12-14T01:10:00.864Z,1.6
2018-12-14T01:15:00.865Z,1.6
2018-12-14T01:20:05.866Z,1.5
2018-12-14T01:25:00.969Z,1.5
2018-12-14T01:30:00.863Z,1.6
2018-12-14T01:35:00.868Z,1.6
2018-12-14T01:40:00.870Z,1.2
2018-12-14T01:45:01.196Z,1.2
2018-12-14T01:50:00.873Z,1.2
2018-12-14T01:55:00.875Z,1.0
2018-12-14T02:00:00.909Z,1.0
2018-12-14T02:05:00.872Z,1.0
2018-12-14T02:10:00.881Z,1.4
2018-12-14T02:15:00.880Z,1.4
2018-12-14T02:20:00.878Z,1.4
2018-12-14T02:25:00.877Z,1.4
2018-12-14T02:30:00.910Z,1.4
2018-12-14T02:45:01.361Z,3.0
2018-12-14T02:50:01.340Z,3.0
2018-12-14T02:55:01.494Z,3.3
2018-12-14T03:00:03.546Z,2.9
2018-12-14T03:05:06.364Z,2.6
2018-12-14T03:10:01.359Z,2.6
2018-12-14T03:15:01.355Z,2.6
2018-12-14T03:20:01.382Z,2.4
2018-12-14T03:25:01.357Z,2.7
2018-12-14T03:30:01.358Z,3.0
2018-12-14T03:40:01.386Z,2.6
2018-12-14T03:45:01.380Z,2.6
2018-12-14T03:50:01.363Z,2.8
2018-12-14T03:55:01.397Z,3.0
2018-12-14T04:00:01.557Z,3.5
2018-12-14T04:05:01.403Z,3.6
2018-12-14T04:10:01.391Z,3.8
2018-12-14T04:15:01.376Z,3.8
2018-12-14T04:20:01.504Z,3.6
2018-12-14T04:25:01.366Z,3.6
2018-12-14T04:30:01.360Z,3.6
2018-12-14T04:35:01.373Z,3.3
2018-12-14T04:40:01.384Z,2.8
2018-12-14T04:45:01.761Z,2.8
2018-12-14T04:50:01.374Z,2.4
2018-12-14T04:55:01.368Z,1.8
2018-12-14T05:00:01.464Z,1.6
2018-12-14T05:05:01.370Z,1.8
2018-12-14T05:10:01.398Z,1.6
2018-12-14T05:15:06.383Z,1.6
2018-12-14T05:20:01.377Z,2.0
2018-12-14T05:25:07.410Z,2.0
2018-12-14T05:30:01.402Z,1.6
2018-12-14T05:40:01.385Z,1.8
2018-12-14T05:45:01.379Z,1.8
2018-12-14T05:50:01.382Z,2.2
2018-12-14T05:55:01.383Z,2.6
2018-12-14T06:00:06.403Z,2.6
2018-12-14T06:05:02.127Z,3.0
2018-12-14T06:10:01.387Z,3.0
2018-12-14T06:15:01.385Z,3.0
2018-12-14T06:20:01.354Z,3.2
2018-12-14T06:30:01.396Z,3.1
2018-12-14T06:35:01.417Z,3.1
2018-12-14T06:40:01.396Z,3.3
2018-12-14T06:45:01.458Z,3.2
2018-12-14T06:50:01.393Z,3.2
2018-12-14T06:55:01.501Z,3.3
2018-12-14T07:00:01.463Z,3.3
2018-12-14T07:05:01.391Z,3.1
2018-12-14T07:10:01.391Z,3.1
2018-12-14T07:15:01.400Z,3.7
2018-12-14T07:20:01.392Z,3.8
2018-12-14T07:25:01.383Z,4.4
2018-12-14T07:30:01.386Z,4.6
2018-12-14T07:35:02.403Z,4.8
2018-12-14T07:40:01.384Z,4.8
2018-12-14T07:45:01.382Z,5.2
2018-12-14T07:50:01.451Z,4.6
2018-12-14T07:55:01.379Z,4.4
2018-12-14T08:00:01.407Z,4.4
2018-12-14T08:05:01.381Z,3.8
2018-12-14T08:10:01.381Z,3.2
2018-12-14T08:15:01.411Z,3.2
2018-12-14T08:20:01.391Z,2.6
2018-12-14T08:25:01.393Z,1.8
2018-12-14T08:30:01.395Z,1.2
2018-12-14T08:35:01.391Z,0.8
2018-12-14T08:40:01.362Z,0.2
2018-12-14T08:45:01.392Z,0.2
2018-12-14T08:50:06.401Z,0.6
2018-12-14T08:55:01.392Z,1.2
2018-12-14T09:00:01.523Z,1.2
2018-12-14T09:05:01.623Z,1.6
2018-12-14T09:10:01.383Z,1.8
2018-12-14T09:15:01.383Z,1.6
2018-12-14T09:20:01.386Z,1.2
2018-12-14T09:25:01.380Z,1.1
2018-12-14T09:30:01.385Z,0.8
2018-12-14T09:35:01.380Z,0.8
2018-12-14T09:40:01.382Z,0.8
2018-12-14T09:45:01.385Z,0.6
2018-12-14T09:50:01.454Z,0.6
2018-12-14T09:55:01.384Z,0.6
2018-12-14T10:00:01.396Z,0.4
2018-12-14T10:05:01.387Z,0.3
2018-12-14T10:10:01.389Z,0.5
2018-12-14T10:15:01.393Z,0.6
2018-12-14T10:20:01.458Z,0.6
2018-12-14T10:25:01.397Z,0.7
2018-12-14T10:30:01.389Z,0.6
2018-12-14T10:35:01.391Z,0.4
2018-12-14T10:40:01.395Z,0.2
2018-12-14T10:45:01.402Z,0.1
2018-12-14T10:50:01.400Z,0.0
2018-12-14T10:55:01.404Z,0.2
2018-12-14T11:00:01.432Z,0.2
2018-12-14T11:05:01.395Z,0.4
2018-12-14T11:10:01.352Z,0.4
2018-12-14T11:15:01.382Z,0.4
2018-12-14T11:20:01.357Z,0.2
2018-12-14T11:25:01.381Z,0.4
2018-12-14T11:30:06.390Z,0.4
2018-12-14T11:35:01.385Z,0.6
2018-12-14T11:40:01.384Z,0.6
2018-12-14T11:45:02.421Z,0.9
2018-12-14T11:50:01.392Z,0.9
2018-12-14T11:55:01.394Z,0.9
2018-12-14T12:00:01.483Z,0.9
2018-12-14T12:05:01.392Z,1.0
2018-12-14T12:10:01.397Z,1.0
2018-12-14T12:15:01.393Z,1.0
2018-12-14T12:20:01.395Z,1.0
2018-12-14T12:30:01.364Z,0.8
2018-12-14T12:35:01.391Z,1.2
2018-12-14T12:40:01.398Z,1.2
2018-12-14T12:45:01.393Z,1.2
2018-12-14T12:50:01.373Z,1.1
2018-12-14T13:00:01.406Z,0.8
2018-12-14T13:05:01.388Z,0.8
2018-12-14T13:10:01.397Z,1.2
2018-12-14T13:15:01.397Z,1.8
2018-12-14T13:20:01.392Z,2.2
2018-12-14T13:25:01.409Z,2.2
2018-12-14T13:30:01.393Z,2.8
2018-12-14T13:35:01.456Z,3.0
2018-12-14T13:40:01.377Z,3.3
2018-12-14T13:45:01.448Z,3.3
2018-12-14T13:50:01.450Z,3.7
2018-12-14T13:55:01.381Z,3.5
2018-12-14T14:00:01.398Z,3.3
2018-12-14T14:10:03.044Z,3.2
2018-12-14T14:15:06.501Z,3.2
2018-12-14T14:20:01.478Z,3.4
2018-12-14T14:25:01.390Z,3.5
2018-12-14T14:30:02.474Z,3.9
2018-12-14T14:36:01.379Z,4.1
2018-12-14T14:41:01.389Z,4.3
2018-12-14T14:46:01.390Z,4.7
2018-12-14T14:51:01.378Z,5.8
2018-12-14T14:56:01.381Z,6.0
2018-12-14T15:01:01.446Z,6.2
2018-12-14T15:06:01.383Z,6.7
2018-12-14T15:11:01.388Z,7.0
2018-12-14T15:16:01.384Z,6.4
2018-12-14T15:21:06.398Z,6.2
2018-12-14T15:26:01.362Z,5.9
2018-12-14T15:31:01.476Z,5.4
2018-12-14T15:36:06.401Z,4.6
2018-12-14T15:41:06.420Z,4.0
2018-12-14T15:46:01.427Z,3.2
2018-12-14T15:51:01.426Z,2.9
2018-12-14T15:56:06.412Z,2.3
2018-12-14T16:01:01.431Z,2.2
2018-12-14T16:06:06.402Z,1.8
2018-12-14T16:11:06.397Z,1.7
2018-12-14T16:16:01.378Z,2.0
2018-12-14T16:21:01.443Z,2.4
2018-12-14T16:26:01.385Z,2.4
2018-12-14T16:31:06.379Z,2.4
2018-12-14T16:36:01.383Z,2.8
2018-12-14T16:41:01.382Z,2.5
2018-12-14T16:46:01.382Z,2.5
2018-12-14T16:51:01.385Z,2.1
2018-12-14T16:56:01.388Z,2.0
2018-12-14T17:01:01.389Z,1.4
2018-12-14T17:06:01.387Z,1.0
2018-12-14T17:11:01.585Z,0.6
2018-12-14T17:16:01.398Z,0.6
2018-12-14T17:21:01.391Z,0.6
2018-12-14T17:26:01.389Z,0.8
2018-12-14T17:31:01.393Z,1.2
2018-12-14T17:36:06.395Z,1.3
2018-12-14T17:41:01.378Z,1.3
2018-12-14T17:46:01.378Z,1.5
2018-12-14T17:56:01.383Z,1.1
2018-12-14T18:06:01.390Z,1.2
2018-12-14T18:11:01.391Z,1.6
2018-12-14T18:16:01.389Z,1.7
2018-12-14T18:21:01.421Z,2.1
2018-12-14T18:26:01.390Z,2.1
2018-12-14T18:31:01.397Z,1.9
2018-12-14T18:36:02.284Z,1.9
2018-12-14T18:41:01.393Z,2.0
2018-12-14T18:46:06.401Z,1.6
2018-12-14T18:51:06.450Z,1.6
2018-12-14T18:56:01.401Z,2.0
2018-12-14T19:01:01.469Z,2.0
2018-12-14T19:06:01.419Z,2.2
2018-12-14T19:11:01.383Z,2.2
2018-12-14T19:16:01.398Z,2.2
2018-12-14T19:21:01.387Z,2.3
2018-12-14T19:26:01.385Z,2.3
2018-12-14T19:31:02.377Z,2.5
2018-12-14T19:36:01.388Z,3.1
2018-12-14T19:41:01.416Z,3.7
2018-12-14T19:46:06.922Z,3.8
2018-12-14T19:51:01.394Z,4.4
2018-12-14T19:56:01.391Z,4.8
2018-12-14T20:01:01.390Z,4.8
2018-12-14T20:06:01.400Z,5.2
2018-12-14T20:11:01.403Z,6.0
2018-12-14T20:16:01.392Z,5.6
2018-12-14T20:21:01.404Z,5.3
2018-12-14T20:26:01.392Z,5.2
2018-12-14T20:31:01.382Z,5.2
2018-12-14T20:36:01.386Z,4.5
2018-12-14T20:41:01.398Z,5.2
2018-12-14T20:46:01.384Z,5.5
2018-12-14T20:51:01.383Z,6.4
2018-12-14T20:56:01.388Z,6.6
2018-12-14T21:01:01.392Z,7.6
2018-12-14T21:06:01.420Z,7.5
2018-12-14T21:11:01.474Z,7.9
2018-12-14T21:16:06.403Z,8.4
2018-12-14T21:21:06.392Z,8.7
2018-12-14T21:26:06.394Z,9.0
2018-12-14T21:31:06.397Z,9.5
2018-12-14T21:36:01.420Z,9.6
2018-12-14T21:41:01.434Z,8.8
2018-12-14T21:46:01.421Z,8.6
2018-12-14T21:51:06.403Z,8.6
2018-12-14T21:56:01.429Z,8.5
2018-12-14T22:01:01.420Z,8.4
2018-12-14T22:06:01.394Z,8.7
2018-12-14T22:11:01.389Z,9.5
2018-12-14T22:16:06.467Z,9.4
2018-12-14T22:21:01.378Z,9.5
2018-12-14T22:26:01.380Z,10.0
2018-12-14T22:31:01.385Z,10.2
2018-12-14T22:36:01.380Z,10.0
2018-12-14T22:41:01.378Z,9.6
2018-12-14T22:46:06.395Z,10.0
2018-12-14T22:51:11.406Z,10.3
2018-12-14T22:56:01.422Z,10.0
2018-12-14T23:01:01.480Z,10.0
2018-12-14T23:06:01.493Z,9.8
2018-12-14T23:11:01.451Z,10.0
2018-12-14T23:16:06.397Z,9.2
2018-12-14T23:21:01.424Z,10.1
2018-12-14T23:31:01.390Z,10.9
2018-12-14T23:36:01.401Z,11.2
2018-12-14T23:41:01.397Z,11.6
2018-12-14T23:46:01.399Z,11.0
2018-12-14T23:52:01.380Z,11.2
2018-12-14T23:57:01.380Z,11.1
